Time;durP1;ratioP1;P1;durP2;ratioP2;P2;SDS_P1;SDS_P2;PMS_P1;PMS_P2;Temp;Humidity;BMP_temperature;BMP_pressure;BME280_temperature;BME280_humidity;BME280_pressure;Samples;Min_cycle;Max_cycle;Signal;HPM_P1;HPM_P2
2024/01/23 00:01:33;;;;;;;10.32;1.95;;;9.30;99.90;;;;;;5073988;28;20100;-65
2024/01/23 00:04:02;;;;;;;9.52;1.65;;;9.30;99.90;;;;;;5073588;28;20063;-64
2024/01/23 00:06:27;;;;;;;9.30;1.67;;;9.30;99.90;;;;;;5074011;28;20041;-63
2024/01/23 00:08:53;;;;;;;10.65;2.30;;;9.30;99.90;;;;;;5073785;28;20135;-63
2024/01/23 00:11:19;;;;;;;5.63;1.45;;;9.20;99.90;;;;;;5073724;28;20021;-64
2024/01/23 00:13:49;;;;;;;12.82;1.92;;;9.20;99.90;;;;;;5072773;28;20017;-64
2024/01/23 00:16:14;;;;;;;16.98;2.42;;;9.20;99.90;;;;;;5073645;28;20024;-65
2024/01/23 00:18:40;;;;;;;10.32;1.75;;;9.20;99.90;;;;;;5073651;28;20048;-63
2024/01/23 00:21:06;;;;;;;12.18;2.40;;;9.20;99.90;;;;;;5073507;28;20025;-65
2024/01/23 00:23:31;;;;;;;10.60;2.00;;;9.20;99.90;;;;;;5073548;28;20029;-64
2024/01/23 00:25:57;;;;;;;10.25;1.45;;;9.20;99.90;;;;;;5073051;28;20039;-65
2024/01/23 00:28:22;;;;;;;7.85;1.20;;;9.10;99.90;;;;;;5073476;28;20043;-64
2024/01/23 00:30:48;;;;;;;15.75;2.15;;;9.20;99.90;;;;;;5073446;28;20053;-64
2024/01/23 00:33:14;;;;;;;12.50;1.90;;;9.20;99.90;;;;;;5073337;28;20044;-64
2024/01/23 00:35:40;;;;;;;8.50;1.42;;;9.20;99.90;;;;;;5073306;28;20040;-62
2024/01/23 00:38:06;;;;;;;7.70;1.90;;;9.20;99.90;;;;;;5073368;28;20025;-63
2024/01/23 00:40:32;;;;;;;7.40;1.50;;;9.20;99.90;;;;;;5073247;28;20033;-63
2024/01/23 00:42:57;;;;;;;9.90;1.73;;;9.20;99.90;;;;;;5073148;28;20085;-65
2024/01/23 00:45:23;;;;;;;9.82;1.70;;;9.20;99.90;;;;;;5073172;28;20162;-63
2024/01/23 00:47:49;;;;;;;7.03;1.38;;;9.20;99.90;;;;;;5073150;28;20029;-65
2024/01/23 00:50:14;;;;;;;9.98;1.65;;;9.20;99.90;;;;;;5073105;28;20043;-64
2024/01/23 00:52:40;;;;;;;12.85;2.03;;;9.20;99.90;;;;;;5073064;28;20033;-64
2024/01/23 00:55:06;;;;;;;8.77;1.90;;;9.20;99.90;;;;;;5072851;28;20055;-63
2024/01/23 00:57:32;;;;;;;10.40;1.23;;;9.20;99.90;;;;;;5073061;28;20013;-64
2024/01/23 00:59:58;;;;;;;10.27;1.98;;;9.20;99.90;;;;;;5072931;28;20021;-63
2024/01/23 01:02:23;;;;;;;13.82;2.17;;;9.20;99.90;;;;;;5072923;28;20025;-65
2024/01/23 01:04:49;;;;;;;10.30;1.83;;;9.20;99.90;;;;;;5071349;28;20065;-62
2024/01/23 01:07:15;;;;;;;10.95;1.70;;;9.20;99.90;;;;;;5072863;28;20096;-64
2024/01/23 01:09:40;;;;;;;6.72;1.63;;;9.20;99.90;;;;;;5072645;28;20032;-62
2024/01/23 01:12:06;;;;;;;13.00;1.85;;;9.10;99.90;;;;;;5072798;28;20111;-64
2024/01/23 01:14:34;;;;;;;6.72;1.60;;;9.10;99.90;;;;;;5072571;28;20081;-64
2024/01/23 01:16:59;;;;;;;8.43;1.17;;;9.10;99.90;;;;;;5072613;28;20017;-64
2024/01/23 01:19:25;;;;;;;10.15;1.67;;;9.10;99.90;;;;;;5072503;28;20045;-63
2024/01/23 01:21:51;;;;;;;8.05;1.70;;;9.10;99.90;;;;;;5072435;28;20427;-63
2024/01/23 01:24:17;;;;;;;13.98;2.30;;;9.10;99.90;;;;;;5072439;28;20025;-63
2024/01/23 01:26:43;;;;;;;9.23;1.42;;;9.10;99.90;;;;;;5072496;28;20553;-63
2024/01/23 01:29:08;;;;;;;15.82;1.58;;;9.00;99.90;;;;;;5072499;28;20040;-62
2024/01/23 01:31:34;;;;;;;11.80;2.05;;;9.00;99.90;;;;;;5072411;28;20029;-64
2024/01/23 01:34:00;;;;;;;10.55;2.05;;;9.00;99.90;;;;;;5072020;28;20039;-64
2024/01/23 01:36:25;;;;;;;14.05;2.55;;;9.00;99.90;;;;;;5071932;28;20029;-63
2024/01/23 01:38:51;;;;;;;8.82;1.27;;;9.00;99.90;;;;;;5071767;28;20050;-64
2024/01/23 01:41:17;;;;;;;13.88;2.17;;;9.00;99.90;;;;;;5072310;28;20055;-63
2024/01/23 01:43:42;;;;;;;9.90;1.70;;;9.00;99.90;;;;;;5072368;28;20048;-64
2024/01/23 01:46:23;;;;;;;9.95;1.92;;;8.90;99.90;;;;;;5071189;28;20029;-63
2024/01/23 01:48:49;;;;;;;10.30;1.95;;;8.90;99.90;;;;;;5072140;28;20108;-66
2024/01/23 01:51:17;;;;;;;10.07;1.50;;;8.90;99.90;;;;;;5072053;28;20021;-65
2024/01/23 01:53:44;;;;;;;12.57;1.75;;;8.80;99.90;;;;;;5072098;28;20111;-63
2024/01/23 01:56:10;;;;;;;15.50;2.53;;;8.70;99.90;;;;;;5072037;28;20032;-63
2024/01/23 01:58:38;;;;;;;8.02;1.50;;;8.70;99.90;;;;;;5071057;28;20085;-62
2024/01/23 02:01:03;;;;;;;8.63;1.40;;;8.60;99.90;;;;;;5072144;28;20047;-64
2024/01/23 02:03:29;;;;;;;6.97;1.00;;;8.60;99.90;;;;;;5070703;28;20491;-65
2024/01/23 02:06:00;;;;;;;13.32;1.90;;;8.60;99.90;;;;;;5071777;28;20071;-63
2024/01/23 02:08:27;;;;;;;10.90;2.00;;;8.50;99.90;;;;;;5071980;28;20045;-64
2024/01/23 02:10:53;;;;;;;11.57;1.80;;;8.50;99.90;;;;;;5072056;28;20021;-62
2024/01/23 02:13:19;;;;;;;10.38;2.17;;;8.50;99.90;;;;;;5071973;28;20059;-62
2024/01/23 02:15:45;;;;;;;13.00;1.73;;;8.40;99.90;;;;;;5070834;28;20029;-62
2024/01/23 02:18:10;;;;;;;11.57;1.40;;;8.40;99.90;;;;;;5071931;28;20017;-64
2024/01/23 02:20:36;;;;;;;12.85;2.35;;;8.50;99.90;;;;;;5071850;28;20033;-63
2024/01/23 02:23:01;;;;;;;14.77;1.50;;;8.40;99.90;;;;;;5071882;28;20052;-63
2024/01/23 02:25:27;;;;;;;6.22;1.23;;;8.40;99.90;;;;;;5071818;28;20028;-65
2024/01/23 02:27:53;;;;;;;9.70;1.85;;;8.40;99.90;;;;;;5071834;28;20021;-64
2024/01/23 02:30:19;;;;;;;12.07;1.83;;;8.40;99.90;;;;;;5071767;28;20021;-65
2024/01/23 02:32:46;;;;;;;13.68;2.25;;;8.30;99.90;;;;;;5071514;28;20032;-64
2024/01/23 02:35:13;;;;;;;14.60;1.95;;;8.30;99.90;;;;;;5071593;28;20045;-65
2024/01/23 02:37:38;;;;;;;6.35;1.50;;;8.40;99.90;;;;;;5070647;28;20045;-63
2024/01/23 02:40:05;;;;;;;13.05;1.73;;;8.30;99.90;;;;;;5071777;28;20033;-63
2024/01/23 02:42:32;;;;;;;8.45;1.42;;;8.30;99.90;;;;;;5071768;28;20116;-62
2024/01/23 02:44:57;;;;;;;11.88;1.88;;;8.30;99.90;;;;;;5071675;28;20425;-63
2024/01/23 02:47:23;;;;;;;11.23;1.80;;;8.30;99.90;;;;;;5071545;28;20021;-64
2024/01/23 02:49:49;;;;;;;12.70;1.98;;;8.30;99.90;;;;;;5074730;28;20032;-63
2024/01/23 02:52:14;;;;;;;14.07;2.03;;;8.30;99.90;;;;;;5075353;28;20033;-65
2024/01/23 02:54:40;;;;;;;12.82;2.15;;;8.30;99.90;;;;;;5075321;28;20084;-63
2024/01/23 02:57:06;;;;;;;15.65;2.60;;;8.30;99.90;;;;;;5075386;28;20029;-64
2024/01/23 02:59:32;;;;;;;8.95;1.80;;;8.20;99.90;;;;;;5075291;28;20028;-64
2024/01/23 03:01:57;;;;;;;9.60;1.60;;;8.20;99.90;;;;;;5075146;28;20043;-63
2024/01/23 03:04:23;;;;;;;15.07;2.05;;;8.30;99.90;;;;;;5074878;28;20053;-62
2024/01/23 03:06:49;;;;;;;10.60;1.98;;;8.30;99.90;;;;;;5075112;28;20033;-63
2024/01/23 03:09:14;;;;;;;12.20;2.20;;;8.30;99.90;;;;;;5075035;28;20041;-62
2024/01/23 03:11:40;;;;;;;14.43;1.92;;;8.20;99.90;;;;;;5074901;28;20036;-65
2024/01/23 03:14:06;;;;;;;12.90;1.80;;;8.20;99.90;;;;;;5074879;28;20024;-63
2024/01/23 03:16:32;;;;;;;12.77;2.20;;;8.20;99.90;;;;;;5074853;28;20021;-63
2024/01/23 03:18:58;;;;;;;11.70;2.35;;;8.20;99.90;;;;;;5074839;28;20445;-63
2024/01/23 03:21:23;;;;;;;10.20;2.05;;;8.10;99.90;;;;;;5074744;28;20052;-65
2024/01/23 03:23:49;;;;;;;9.30;1.42;;;8.20;99.90;;;;;;5074732;28;20040;-64
2024/01/23 03:26:14;;;;;;;8.13;2.28;;;8.20;99.90;;;;;;5074727;28;20037;-65
2024/01/23 03:28:40;;;;;;;7.28;1.75;;;8.20;99.90;;;;;;5074708;28;20025;-65
2024/01/23 03:31:06;;;;;;;8.10;1.50;;;8.20;99.90;;;;;;5074503;28;20106;-66
2024/01/23 03:33:32;;;;;;;7.35;1.67;;;8.20;99.90;;;;;;5074339;28;20097;-64
2024/01/23 03:35:58;;;;;;;11.57;2.13;;;8.30;99.90;;;;;;5073529;28;20051;-64
2024/01/23 03:38:24;;;;;;;12.65;1.60;;;8.20;99.90;;;;;;5074437;28;20024;-63
2024/01/23 03:40:49;;;;;;;14.18;1.70;;;8.20;99.90;;;;;;5074522;28;20051;-63
2024/01/23 03:43:15;;;;;;;7.20;1.10;;;8.20;99.90;;;;;;5074461;28;20029;-62
2024/01/23 03:45:41;;;;;;;8.50;1.67;;;8.20;99.90;;;;;;5074354;28;20467;-64
2024/01/23 03:48:07;;;;;;;7.88;1.60;;;8.10;99.90;;;;;;5074285;28;20033;-63
2024/01/23 03:50:33;;;;;;;8.43;1.70;;;8.10;99.90;;;;;;5074270;28;20025;-63
2024/01/23 03:52:58;;;;;;;9.60;1.83;;;8.10;99.90;;;;;;5074204;28;20049;-64
2024/01/23 03:55:25;;;;;;;12.38;2.15;;;8.10;99.90;;;;;;5074117;28;20044;-63
2024/01/23 03:57:51;;;;;;;15.50;2.35;;;8.10;99.90;;;;;;5074094;28;20044;-64
2024/01/23 04:00:18;;;;;;;21.25;2.15;;;8.10;99.90;;;;;;5073291;28;20025;-63
2024/01/23 04:02:43;;;;;;;9.65;1.40;;;8.10;99.90;;;;;;5073822;28;20108;-65
2024/01/23 04:05:09;;;;;;;11.80;2.13;;;8.10;99.90;;;;;;5073783;28;20061;-63
2024/01/23 04:07:35;;;;;;;9.23;1.92;;;8.00;99.90;;;;;;5073858;28;20059;-64
2024/01/23 04:10:02;;;;;;;12.88;2.42;;;8.00;99.90;;;;;;5073767;28;20043;-64
2024/01/23 04:12:27;;;;;;;12.38;2.00;;;8.00;99.90;;;;;;5073709;28;20053;-64
2024/01/23 04:14:53;;;;;;;16.55;2.28;;;8.00;99.90;;;;;;5073565;28;20033;-65
2024/01/23 04:17:19;;;;;;;13.20;2.13;;;7.90;99.90;;;;;;5073772;28;20036;-65
2024/01/23 04:19:45;;;;;;;12.88;1.80;;;7.90;99.90;;;;;;5073617;28;20029;-62
2024/01/23 04:22:11;;;;;;;8.13;1.52;;;7.80;99.90;;;;;;5073632;28;20052;-65
2024/01/23 04:24:37;;;;;;;9.55;1.83;;;7.90;99.90;;;;;;5073680;28;20088;-62
2024/01/23 04:27:06;;;;;;;12.82;2.15;;;7.90;99.90;;;;;;5073628;28;20025;-62
2024/01/23 04:29:32;;;;;;;12.98;2.22;;;7.90;99.90;;;;;;5073482;28;20035;-66
2024/01/23 04:31:58;;;;;;;20.30;2.15;;;7.80;99.90;;;;;;5073520;28;20041;-64
2024/01/23 04:34:24;;;;;;;8.50;1.65;;;7.80;99.90;;;;;;5073234;28;20113;-64
2024/01/23 04:36:49;;;;;;;15.13;2.13;;;7.80;99.90;;;;;;5073391;28;20096;-64
2024/01/23 04:39:16;;;;;;;12.52;1.70;;;7.80;99.90;;;;;;5073350;28;20037;-63
2024/01/23 04:41:42;;;;;;;4.65;1.40;;;7.80;99.90;;;;;;5073393;28;20025;-63
2024/01/23 04:44:07;;;;;;;8.85;1.90;;;7.80;99.90;;;;;;5073193;28;20032;-63
2024/01/23 04:46:33;;;;;;;13.15;1.73;;;7.70;99.90;;;;;;5073160;28;20104;-63
2024/01/23 04:48:59;;;;;;;11.98;2.63;;;7.70;99.90;;;;;;5073184;28;20014;-63
2024/01/23 04:51:24;;;;;;;13.63;2.28;;;7.70;99.90;;;;;;5073056;28;20391;-63
2024/01/23 04:53:52;;;;;;;7.60;2.13;;;7.80;99.90;;;;;;5073005;28;20047;-64
2024/01/23 04:56:18;;;;;;;17.95;2.50;;;7.70;99.90;;;;;;5072853;28;20029;-64
2024/01/23 04:58:44;;;;;;;12.38;2.47;;;7.70;99.90;;;;;;5072899;28;20033;-63
2024/01/23 05:01:09;;;;;;;16.25;2.17;;;7.70;99.90;;;;;;5072842;28;20084;-64
2024/01/23 05:03:35;;;;;;;13.48;1.77;;;7.70;99.90;;;;;;5071795;28;20043;-64
2024/01/23 05:06:01;;;;;;;4.20;1.30;;;7.70;99.90;;;;;;5072729;28;20084;-63
2024/01/23 05:08:26;;;;;;;10.40;1.60;;;7.60;99.90;;;;;;5072766;28;20032;-63
2024/01/23 05:10:52;;;;;;;14.85;2.63;;;7.60;99.90;;;;;;5072729;28;20044;-64
2024/01/23 05:13:18;;;;;;;13.55;2.72;;;7.60;99.90;;;;;;5071745;28;20055;-64
2024/01/23 05:15:43;;;;;;;11.15;1.85;;;7.60;99.90;;;;;;5072581;28;20059;-62
2024/01/23 05:18:09;;;;;;;13.50;1.73;;;7.60;99.90;;;;;;5072668;28;20152;-62
2024/01/23 05:20:35;;;;;;;10.57;1.92;;;7.60;99.90;;;;;;5072486;28;20023;-65
2024/01/23 05:23:03;;;;;;;11.80;2.45;;;7.50;99.90;;;;;;5072662;28;20025;-64
2024/01/23 05:25:28;;;;;;;7.28;1.42;;;7.50;99.90;;;;;;5072486;28;20096;-64
2024/01/23 05:27:54;;;;;;;13.57;1.85;;;7.50;99.90;;;;;;5072427;28;20040;-65
2024/01/23 05:30:20;;;;;;;10.23;1.50;;;7.50;99.90;;;;;;5072320;28;20052;-66
2024/01/23 05:32:45;;;;;;;7.45;1.80;;;7.50;99.90;;;;;;5071131;28;20029;-65
2024/01/23 05:35:11;;;;;;;11.57;2.15;;;7.50;99.90;;;;;;5072302;28;20043;-62
2024/01/23 05:37:37;;;;;;;13.98;2.17;;;7.50;99.90;;;;;;5072293;28;20537;-64
2024/01/23 05:40:04;;;;;;;10.10;2.10;;;7.50;99.90;;;;;;5072337;28;20095;-65
2024/01/23 05:42:29;;;;;;;12.85;2.25;;;7.40;99.90;;;;;;5072250;28;20020;-64
2024/01/23 05:44:56;;;;;;;8.07;2.33;;;7.40;99.90;;;;;;5072267;28;20017;-63
2024/01/23 05:47:22;;;;;;;16.13;2.30;;;7.40;99.90;;;;;;5072199;28;20025;-64
2024/01/23 05:49:47;;;;;;;10.55;1.92;;;7.40;99.90;;;;;;5072157;28;20036;-64
2024/01/23 05:52:14;;;;;;;12.93;2.45;;;7.40;99.90;;;;;;5071142;28;20021;-64
2024/01/23 05:54:41;;;;;;;15.10;3.13;;;7.40;99.90;;;;;;5071127;28;20021;-63
2024/01/23 05:57:08;;;;;;;13.68;2.33;;;7.40;99.90;;;;;;5071675;28;20021;-62
2024/01/23 05:59:33;;;;;;;11.82;2.47;;;7.40;99.90;;;;;;5071853;28;20021;-63
2024/01/23 06:01:59;;;;;;;8.23;2.00;;;7.40;99.90;;;;;;5071486;28;20033;-64
2024/01/23 06:04:24;;;;;;;14.35;2.38;;;7.40;99.90;;;;;;5071432;28;20055;-66
2024/01/23 06:06:50;;;;;;;13.73;2.05;;;7.30;99.90;;;;;;5071667;28;20029;-66
2024/01/23 06:09:16;;;;;;;12.27;1.90;;;7.30;99.90;;;;;;5071743;28;20055;-64
2024/01/23 06:11:41;;;;;;;9.77;2.53;;;7.20;99.90;;;;;;5071539;28;20075;-63
2024/01/23 06:14:07;;;;;;;14.65;2.15;;;7.30;99.90;;;;;;5071455;28;20051;-64
2024/01/23 06:16:32;;;;;;;19.83;2.38;;;7.30;99.90;;;;;;5071695;28;20033;-64
2024/01/23 06:18:58;;;;;;;10.70;1.90;;;7.20;99.90;;;;;;5071684;28;20051;-65
2024/01/23 06:21:24;;;;;;;10.82;1.95;;;7.20;99.90;;;;;;5071551;28;20048;-65
2024/01/23 06:23:49;;;;;;;10.10;2.75;;;7.10;99.90;;;;;;5072859;28;20039;-65
2024/01/23 06:26:15;;;;;;;9.50;1.55;;;7.10;99.90;;;;;;5075590;28;20036;-64
2024/01/23 06:28:41;;;;;;;17.90;3.05;;;7.10;99.90;;;;;;5075697;28;20021;-63
2024/01/23 06:31:06;;;;;;;10.75;2.35;;;7.10;99.90;;;;;;5075568;28;20060;-62
2024/01/23 06:33:33;;;;;;;11.70;2.42;;;7.00;99.90;;;;;;5075462;28;20032;-63
2024/01/23 06:35:58;;;;;;;9.18;1.70;;;7.00;99.90;;;;;;5075603;28;20021;-64
2024/01/23 06:38:24;;;;;;;17.42;2.10;;;7.00;99.90;;;;;;5075549;28;20033;-63
2024/01/23 06:40:50;;;;;;;10.55;1.70;;;6.90;99.90;;;;;;5075508;28;20029;-64
2024/01/23 06:43:15;;;;;;;17.77;2.58;;;6.90;99.90;;;;;;5075582;28;20107;-64
2024/01/23 06:45:41;;;;;;;12.13;1.35;;;6.90;99.90;;;;;;5075465;28;20030;-64
2024/01/23 06:48:07;;;;;;;18.75;2.17;;;6.80;99.90;;;;;;5075458;28;20530;-63
2024/01/23 06:50:32;;;;;;;7.63;1.58;;;6.80;99.90;;;;;;5075283;28;20085;-64
2024/01/23 06:52:58;;;;;;;13.57;1.92;;;6.80;99.90;;;;;;5075327;28;20025;-64
2024/01/23 06:55:24;;;;;;;14.13;1.85;;;6.80;99.90;;;;;;5075077;28;20048;-64
2024/01/23 06:57:50;;;;;;;15.23;1.98;;;6.70;99.90;;;;;;5075284;28;20035;-64
2024/01/23 07:00:16;;;;;;;10.98;1.92;;;6.70;99.90;;;;;;5075155;28;20037;-64
2024/01/23 07:02:42;;;;;;;9.05;1.80;;;6.70;99.90;;;;;;5074867;28;20025;-63
2024/01/23 07:05:07;;;;;;;14.80;2.42;;;6.70;99.90;;;;;;5074766;28;20049;-64
2024/01/23 07:07:35;;;;;;;10.85;1.83;;;6.70;99.90;;;;;;5075005;28;20033;-66
2024/01/23 07:10:01;;;;;;;15.20;2.15;;;6.60;99.90;;;;;;5074884;28;20029;-64
2024/01/23 07:12:26;;;;;;;12.02;2.40;;;6.70;99.90;;;;;;5074692;28;20421;-65
2024/01/23 07:14:52;;;;;;;12.10;1.95;;;6.60;99.90;;;;;;5073288;28;20036;-65
2024/01/23 07:17:17;;;;;;;6.13;1.58;;;6.60;99.90;;;;;;5073048;28;20025;-65
2024/01/23 07:19:44;;;;;;;12.93;2.22;;;6.60;99.90;;;;;;5073275;28;20039;-64
2024/01/23 07:22:09;;;;;;;12.07;1.98;;;6.60;99.90;;;;;;5073960;28;20017;-65
2024/01/23 07:24:35;;;;;;;15.07;3.50;;;6.60;99.90;;;;;;5074466;28;20037;-63
2024/01/23 07:27:01;;;;;;;11.68;2.55;;;6.60;99.90;;;;;;5073779;28;20032;-64
2024/01/23 07:29:26;;;;;;;14.18;2.08;;;6.60;99.90;;;;;;5074696;28;20029;-64
2024/01/23 07:31:52;;;;;;;17.45;2.58;;;6.60;99.90;;;;;;5074681;28;20033;-64
2024/01/23 07:34:18;;;;;;;14.85;2.15;;;6.60;99.90;;;;;;5074040;28;20033;-64
2024/01/23 07:36:44;;;;;;;12.00;2.55;;;6.60;99.90;;;;;;5073714;28;20029;-64
2024/01/23 07:39:09;;;;;;;13.30;2.60;;;6.60;99.90;;;;;;5074389;28;20040;-65
2024/01/23 07:41:35;;;;;;;16.23;2.58;;;6.60;99.90;;;;;;5074424;28;20029;-64
2024/01/23 07:44:01;;;;;;;14.27;2.75;;;6.60;99.90;;;;;;5074415;28;20456;-63
2024/01/23 07:46:27;;;;;;;19.85;2.50;;;6.60;99.90;;;;;;5074310;28;20025;-65
2024/01/23 07:48:52;;;;;;;16.88;2.63;;;6.70;99.90;;;;;;5074212;28;20605;-64
2024/01/23 07:51:18;;;;;;;14.75;2.55;;;6.60;99.90;;;;;;5074172;28;20040;-65
2024/01/23 07:53:44;;;;;;;10.05;1.80;;;6.60;99.90;;;;;;5074094;28;20081;-64
2024/01/23 07:56:09;;;;;;;14.75;2.22;;;6.60;99.90;;;;;;5074182;28;20025;-64
2024/01/23 07:58:35;;;;;;;7.28;1.85;;;6.60;99.90;;;;;;5074204;28;20033;-64
2024/01/23 08:01:00;;;;;;;14.93;2.03;;;6.70;99.90;;;;;;5074036;28;20032;-64
2024/01/23 08:03:26;;;;;;;5.07;1.45;;;6.60;99.90;;;;;;5073785;28;20029;-63
2024/01/23 08:05:52;;;;;;;13.70;1.90;;;6.60;99.90;;;;;;5073805;28;20052;-64
2024/01/23 08:08:17;;;;;;;12.70;1.92;;;6.60;99.90;;;;;;5073834;28;20376;-64
2024/01/23 08:10:44;;;;;;;9.90;2.22;;;6.60;99.90;;;;;;5073840;28;20025;-64
2024/01/23 08:13:09;;;;;;;14.20;1.92;;;6.70;99.90;;;;;;5073858;28;20051;-63
2024/01/23 08:15:35;;;;;;;20.20;2.58;;;6.60;99.90;;;;;;5073692;28;20037;-64
2024/01/23 08:18:03;;;;;;;11.30;2.15;;;6.70;99.90;;;;;;5072661;28;20025;-64
2024/01/23 08:20:30;;;;;;;16.05;2.25;;;6.70;99.90;;;;;;5073579;28;20038;-64
2024/01/23 08:22:55;;;;;;;8.85;2.00;;;6.70;99.90;;;;;;5073512;28;20021;-64
2024/01/23 08:25:21;;;;;;;8.50;1.65;;;6.70;99.90;;;;;;5073658;28;20040;-64
2024/01/23 08:27:46;;;;;;;21.88;3.40;;;6.70;99.90;;;;;;5073549;28;20096;-64
2024/01/23 08:30:12;;;;;;;12.18;1.85;;;6.70;99.90;;;;;;5073529;28;20029;-65
2024/01/23 08:32:38;;;;;;;15.70;2.65;;;6.70;99.90;;;;;;5073264;28;20025;-65
2024/01/23 08:35:06;;;;;;;15.10;2.42;;;6.80;99.90;;;;;;5073276;28;20037;-64
2024/01/23 08:37:32;;;;;;;16.00;2.30;;;6.80;99.90;;;;;;5073270;28;20021;-64
2024/01/23 08:39:57;;;;;;;17.38;2.38;;;6.80;99.90;;;;;;5073322;28;20028;-64
2024/01/23 08:42:23;;;;;;;12.05;1.98;;;6.80;99.90;;;;;;5073311;28;20021;-64
2024/01/23 08:44:50;;;;;;;12.73;2.03;;;6.90;99.90;;;;;;5072115;28;20033;-64
2024/01/23 08:47:16;;;;;;;15.52;2.45;;;6.90;99.90;;;;;;5072995;28;20120;-63
2024/01/23 08:49:42;;;;;;;12.32;2.05;;;6.90;99.90;;;;;;5072985;28;20025;-65
2024/01/23 08:52:07;;;;;;;12.77;2.28;;;7.00;99.90;;;;;;5073061;28;20052;-64
2024/01/23 08:54:34;;;;;;;17.00;3.20;;;7.00;99.90;;;;;;5072800;28;20036;-65
2024/01/23 08:57:00;;;;;;;11.27;1.90;;;7.00;99.90;;;;;;5072998;28;20049;-64
2024/01/23 08:59:28;;;;;;;12.40;2.67;;;6.90;99.90;;;;;;5073044;28;20034;-64
2024/01/23 09:01:54;;;;;;;15.48;2.60;;;7.00;99.90;;;;;;5072918;28;20510;-64
2024/01/23 09:04:20;;;;;;;12.55;2.47;;;7.00;99.90;;;;;;5072700;28;20047;-64
2024/01/23 09:06:46;;;;;;;22.83;3.13;;;7.00;99.90;;;;;;5072174;28;20519;-65
2024/01/23 09:09:11;;;;;;;16.08;2.42;;;7.00;99.90;;;;;;5072851;28;20025;-64
2024/01/23 09:11:37;;;;;;;10.88;2.15;;;7.00;99.90;;;;;;5072661;28;20051;-63
2024/01/23 09:14:03;;;;;;;13.05;2.83;;;7.00;99.90;;;;;;5072701;28;20042;-64
2024/01/23 09:16:28;;;;;;;11.15;2.25;;;7.00;99.90;;;;;;5072614;28;20022;-62
2024/01/23 09:18:55;;;;;;;17.75;3.63;;;7.00;99.90;;;;;;5072725;28;20024;-64
2024/01/23 09:21:24;;;;;;;21.63;2.75;;;7.00;99.90;;;;;;5072505;28;20089;-64
2024/01/23 09:23:50;;;;;;;14.82;2.50;;;7.10;99.90;;;;;;5072615;28;20074;-64
2024/01/23 09:26:16;;;;;;;11.65;2.80;;;7.10;99.90;;;;;;5072405;28;20068;-64
2024/01/23 09:28:41;;;;;;;9.32;2.53;;;7.10;99.90;;;;;;5072394;28;20116;-65
2024/01/23 09:31:07;;;;;;;9.70;2.20;;;7.10;99.90;;;;;;5072377;28;20029;-65
2024/01/23 09:33:32;;;;;;;14.77;2.75;;;7.20;99.90;;;;;;5072148;28;20033;-65
2024/01/23 09:35:58;;;;;;;11.15;2.10;;;7.20;99.90;;;;;;5072195;28;20033;-65
2024/01/23 09:38:24;;;;;;;21.08;2.95;;;7.20;99.90;;;;;;5072201;28;20033;-64
2024/01/23 09:40:53;;;;;;;14.02;2.97;;;7.30;99.90;;;;;;5072322;28;20052;-65
2024/01/23 09:43:21;;;;;;;15.98;2.92;;;7.30;99.90;;;;;;5072236;28;20494;-64
2024/01/23 09:45:50;;;;;;;24.30;3.60;;;7.40;99.90;;;;;;5072171;28;20036;-65
2024/01/23 09:48:15;;;;;;;9.68;2.05;;;7.40;99.90;;;;;;5071943;28;20041;-63
2024/01/23 09:50:44;;;;;;;21.77;2.63;;;7.40;99.90;;;;;;5072150;28;20060;-65
2024/01/23 09:53:10;;;;;;;17.10;3.38;;;7.50;99.90;;;;;;5072191;28;20081;-63
2024/01/23 09:55:37;;;;;;;13.45;2.17;;;7.60;99.90;;;;;;5072060;28;20092;-65
2024/01/23 09:58:04;;;;;;;19.33;3.50;;;7.60;99.90;;;;;;5072741;28;20080;-64
2024/01/23 10:00:30;;;;;;;19.92;2.33;;;7.70;99.90;;;;;;5078677;28;20021;-63
2024/01/23 10:02:55;;;;;;;11.15;2.40;;;7.70;99.90;;;;;;5078568;28;20055;-64
2024/01/23 10:05:22;;;;;;;14.93;3.10;;;7.80;99.90;;;;;;5078737;28;20041;-64
2024/01/23 10:07:48;;;;;;;13.32;2.58;;;7.80;99.90;;;;;;5078470;28;20041;-65
2024/01/23 10:10:17;;;;;;;14.63;2.55;;;7.80;99.90;;;;;;5078710;28;20456;-64
2024/01/23 10:12:47;;;;;;;14.65;2.35;;;7.90;99.90;;;;;;5078673;28;20080;-63
2024/01/23 10:15:20;;;;;;;11.93;2.58;;;7.90;99.90;;;;;;5078449;28;20056;-63
2024/01/23 10:17:47;;;;;;;18.25;3.08;;;8.00;99.90;;;;;;5078693;28;20040;-65
2024/01/23 10:20:12;;;;;;;15.27;2.70;;;8.00;99.90;;;;;;5078478;28;20025;-64
2024/01/23 10:22:38;;;;;;;14.00;2.40;;;8.00;99.90;;;;;;5078580;28;20036;-64
2024/01/23 10:25:19;;;;;;;12.88;2.45;;;8.00;99.90;;;;;;5078496;28;20025;-65
2024/01/23 10:27:44;;;;;;;11.70;2.63;;;8.10;99.90;;;;;;5078452;28;20085;-64
2024/01/23 10:30:10;;;;;;;19.95;2.92;;;8.20;99.90;;;;;;5078425;28;20044;-66
2024/01/23 10:32:36;;;;;;;15.35;2.60;;;8.20;99.90;;;;;;5078342;28;20032;-64
2024/01/23 10:35:03;;;;;;;11.77;2.47;;;8.20;99.90;;;;;;5078364;28;20025;-65
2024/01/23 10:37:29;;;;;;;17.88;2.55;;;8.30;99.90;;;;;;5078458;28;20070;-63
2024/01/23 10:39:56;;;;;;;14.02;2.90;;;8.40;99.90;;;;;;5078439;28;20032;-64
2024/01/23 10:42:22;;;;;;;11.07;1.80;;;8.50;99.90;;;;;;5078416;28;20043;-65
2024/01/23 10:44:49;;;;;;;14.63;2.45;;;8.50;99.90;;;;;;5078448;28;20017;-65
2024/01/23 10:47:15;;;;;;;15.75;2.65;;;8.60;99.90;;;;;;5078368;28;20021;-64
2024/01/23 10:49:42;;;;;;;13.68;3.03;;;8.70;99.90;;;;;;5078315;28;20514;-64
2024/01/23 10:52:11;;;;;;;8.65;3.15;;;8.80;99.90;;;;;;5078203;28;20070;-64
2024/01/23 10:54:45;;;;;;;15.52;2.38;;;8.80;99.90;;;;;;5078126;28;20061;-63
2024/01/23 10:57:20;;;;;;;15.15;2.58;;;8.80;99.90;;;;;;5078271;28;20056;-64
2024/01/23 10:59:47;;;;;;;13.02;2.58;;;8.80;99.90;;;;;;5078206;28;20021;-64
2024/01/23 11:02:42;;;;;;;12.50;2.17;;;8.80;99.90;;;;;;5078274;28;20039;-64
2024/01/23 11:05:08;;;;;;;13.48;2.60;;;8.80;99.90;;;;;;5078187;28;20039;-64
2024/01/23 11:07:57;;;;;;;13.30;2.65;;;8.90;99.90;;;;;;5076798;28;20136;-64
2024/01/23 11:10:43;;;;;;;11.40;2.63;;;9.00;99.90;;;;;;5075549;28;20103;-64
2024/01/23 11:13:39;;;;;;;10.70;2.67;;;9.00;99.90;;;;;;5074470;28;20052;-64
2024/01/23 11:16:06;;;;;;;12.00;2.80;;;9.00;99.90;;;;;;5074062;28;20045;-64
2024/01/23 11:18:33;;;;;;;12.63;2.03;;;9.00;99.90;;;;;;5074621;28;20021;-65
2024/01/23 11:21:04;;;;;;;14.88;2.88;;;9.10;99.90;;;;;;5074230;28;20017;-64
2024/01/23 11:23:46;;;;;;;14.18;2.65;;;9.10;99.90;;;;;;5074588;28;20096;-65
2024/01/23 11:26:22;;;;;;;17.13;2.38;;;9.10;99.90;;;;;;5074279;28;20044;-64
2024/01/23 11:28:58;;;;;;;9.68;2.22;;;9.10;99.90;;;;;;5074263;28;20021;-65
2024/01/23 11:31:26;;;;;;;15.15;2.83;;;9.10;99.90;;;;;;5074386;28;20036;-63
2024/01/23 11:33:52;;;;;;;12.57;2.42;;;9.10;99.90;;;;;;5074203;28;20025;-65
2024/01/23 11:36:26;;;;;;;15.82;3.15;;;9.10;99.90;;;;;;5074201;28;20031;-64
2024/01/23 11:38:56;;;;;;;16.67;2.88;;;9.10;99.90;;;;;;5073799;28;20040;-63
2024/01/23 11:41:23;;;;;;;15.90;2.33;;;9.20;99.90;;;;;;5074028;28;20033;-65
2024/01/23 11:44:01;;;;;;;12.25;2.13;;;9.20;99.90;;;;;;5074159;28;20025;-63
2024/01/23 11:46:27;;;;;;;13.13;2.58;;;9.20;99.90;;;;;;5074138;28;20032;-64
2024/01/23 11:48:53;;;;;;;11.20;2.33;;;9.20;99.90;;;;;;5073749;28;20037;-64
2024/01/23 11:51:20;;;;;;;16.65;2.90;;;9.20;99.90;;;;;;5073842;28;20036;-65
2024/01/23 11:53:47;;;;;;;16.00;2.33;;;9.30;99.90;;;;;;5073888;28;20519;-65
2024/01/23 11:56:14;;;;;;;16.00;2.63;;;9.30;99.90;;;;;;5073780;28;20017;-64
2024/01/23 11:58:41;;;;;;;15.48;2.72;;;9.20;99.90;;;;;;5073704;28;20025;-64
2024/01/23 12:01:09;;;;;;;14.55;2.75;;;9.20;99.90;;;;;;5073582;28;20025;-64
2024/01/23 12:03:35;;;;;;;11.82;2.40;;;9.30;99.90;;;;;;5073511;28;20052;-64
2024/01/23 12:06:02;;;;;;;16.60;2.38;;;9.30;99.90;;;;;;5073644;28;20021;-65
2024/01/23 12:08:27;;;;;;;19.33;2.60;;;9.40;99.90;;;;;;5073527;28;20076;-64
2024/01/23 12:10:54;;;;;;;18.05;2.58;;;9.40;99.90;;;;;;5073250;28;20021;-64
2024/01/23 12:13:24;;;;;;;12.27;2.13;;;9.40;99.90;;;;;;5073524;28;20029;-65
2024/01/23 12:15:50;;;;;;;17.88;2.42;;;9.40;99.90;;;;;;5073384;28;20025;-64
2024/01/23 12:18:20;;;;;;;14.88;2.60;;;9.40;99.90;;;;;;5073250;28;20036;-65
2024/01/23 12:20:50;;;;;;;15.00;2.85;;;9.50;99.90;;;;;;5072750;28;20481;-66
2024/01/23 12:23:19;;;;;;;18.65;2.55;;;9.50;99.90;;;;;;5073231;28;20025;-64
2024/01/23 12:25:46;;;;;;;11.40;2.63;;;9.60;99.90;;;;;;5073447;28;20025;-65
2024/01/23 12:28:11;;;;;;;14.07;3.70;;;9.60;99.90;;;;;;5073358;28;20112;-64
2024/01/23 12:30:37;;;;;;;16.77;2.97;;;9.60;99.90;;;;;;5073205;28;20029;-65
2024/01/23 12:33:05;;;;;;;16.42;2.30;;;9.60;99.90;;;;;;5072848;28;20033;-65
2024/01/23 12:35:30;;;;;;;21.80;3.63;;;9.60;99.90;;;;;;5073047;28;20017;-65
2024/01/23 12:37:56;;;;;;;17.45;2.22;;;9.70;99.90;;;;;;5072993;28;20036;-64
2024/01/23 12:40:22;;;;;;;11.50;2.03;;;9.80;99.90;;;;;;5072827;28;20032;-65
2024/01/23 12:42:49;;;;;;;11.57;2.17;;;9.80;99.90;;;;;;5072796;28;20026;-65
2024/01/23 12:45:16;;;;;;;14.75;2.75;;;9.80;99.90;;;;;;5072862;28;20025;-65